createdAt,value
2023-05-20T00:00:35.377Z,92683.03
2023-05-20T00:03:02.056Z,92680.31
2023-05-20T00:05:28.603Z,92674.91
2023-05-20T00:07:55.179Z,92673.41
2023-05-20T00:10:21.735Z,92672.66
2023-05-20T00:12:48.252Z,92667.25
2023-05-20T00:15:14.770Z,92668.94
2023-05-20T00:17:41.294Z,92667.47
2023-05-20T00:20:08.492Z,92674.84
2023-05-20T00:22:35.010Z,92672.31
2023-05-20T00:25:01.523Z,92683.72
2023-05-20T00:27:28.018Z,92680.75
2023-05-20T00:29:54.556Z,92672.31
2023-05-20T00:32:21.161Z,92676.53
2023-05-20T00:34:57.253Z,92671.56
2023-05-20T00:37:24.090Z,92674.56
2023-05-20T00:39:50.609Z,92663.94
2023-05-20T00:42:23.948Z,92659.50
2023-05-20T00:44:50.511Z,92661.47
2023-05-20T00:47:17.841Z,92652.81
2023-05-20T00:49:46.920Z,92648.88
2023-05-20T00:52:14.819Z,92649.09
2023-05-20T00:54:41.714Z,92648.84
2023-05-20T00:57:08.408Z,92648.47
2023-05-20T00:59:36.420Z,92641.03
2023-05-20T01:02:03.561Z,92642.91
2023-05-20T01:04:30.806Z,92638.47
2023-05-20T01:06:57.840Z,92634.72
2023-05-20T01:09:25.002Z,92647.97
2023-05-20T01:12:04.521Z,92650.50
2023-05-20T01:14:33.338Z,92641.44
2023-05-20T01:16:59.843Z,92635.44
2023-05-20T01:19:35.594Z,92635.94
2023-05-20T01:22:07.065Z,92631.25
2023-05-20T01:24:33.675Z,92639.19
2023-05-20T01:27:00.182Z,92627.88
2023-05-20T01:29:26.680Z,92627.41
2023-05-20T01:31:53.909Z,92622.94
2023-05-20T01:34:20.644Z,92619.97
2023-05-20T01:36:47.284Z,92625.66
2023-05-20T01:39:13.943Z,92617.53
2023-05-20T01:41:40.918Z,92619.75
2023-05-20T01:44:07.452Z,92610.63
2023-05-20T01:46:34.505Z,92619.19
2023-05-20T01:49:01.074Z,92623.88
2023-05-20T01:51:27.905Z,92628.53
2023-05-20T01:53:54.478Z,92631.25
2023-05-20T01:56:22.103Z,92625.19
2023-05-20T01:58:48.619Z,92629.09
2023-05-20T02:01:15.176Z,92626.59
2023-05-20T02:03:41.692Z,92626.88
2023-05-20T02:06:08.259Z,92620.41
2023-05-20T02:08:34.755Z,92620.63
2023-05-20T02:11:01.352Z,92617.66
2023-05-20T02:13:27.866Z,92621.59
2023-05-20T02:15:54.406Z,92617.66
2023-05-20T02:18:20.915Z,92613.72
2023-05-20T02:20:47.503Z,92611.03
2023-05-20T02:23:14.042Z,92605.06
2023-05-20T02:25:41.018Z,92605.25
2023-05-20T02:28:10.609Z,92604.91
2023-05-20T02:30:38.461Z,92599.47
2023-05-20T02:33:05.055Z,92595.72
2023-05-20T02:35:31.822Z,92597.91
2023-05-20T02:37:58.407Z,92604.25
2023-05-20T02:40:24.926Z,92592.88
2023-05-20T02:42:51.469Z,92593.00
2023-05-20T02:45:18.013Z,92603.28
2023-05-20T02:47:44.600Z,92606.44
2023-05-20T02:50:11.271Z,92596.38
2023-05-20T02:52:37.828Z,92596.38
2023-05-20T02:55:04.755Z,92591.69
2023-05-20T02:57:32.249Z,92593.41
2023-05-20T02:59:58.746Z,92592.19
2023-05-20T03:02:25.320Z,92589.25
2023-05-20T03:04:54.842Z,92594.69
2023-05-20T03:07:22.369Z,92603.84
2023-05-20T03:09:48.886Z,92597.94
2023-05-20T03:12:15.682Z,92602.41
2023-05-20T03:14:42.224Z,92601.75
2023-05-20T03:17:09.518Z,92592.22
2023-05-20T03:19:36.047Z,92591.00
2023-05-20T03:22:02.606Z,92585.84
2023-05-20T03:24:29.213Z,92591.53
2023-05-20T03:26:56.021Z,92587.34
2023-05-20T03:29:23.481Z,92588.56
2023-05-20T03:31:50.038Z,92581.19
2023-05-20T03:34:16.751Z,92584.63
2023-05-20T03:36:43.279Z,92588.28
2023-05-20T03:39:09.830Z,92588.56
2023-05-20T03:41:37.917Z,92581.94
2023-05-20T03:44:04.591Z,92593.50
2023-05-20T03:46:32.563Z,92590.78
2023-05-20T03:48:59.177Z,92590.03
2023-05-20T03:51:25.867Z,92591.25
2023-05-20T03:53:52.346Z,92587.34
2023-05-20T03:56:18.853Z,92585.38
2023-05-20T03:58:45.390Z,92579.91
2023-05-20T04:01:15.254Z,92578.13
2023-05-20T04:03:42.574Z,92585.50
2023-05-20T04:06:09.204Z,92577.66
2023-05-20T04:08:38.266Z,92574.97
2023-05-20T04:11:04.857Z,92569.59
2023-05-20T04:13:31.413Z,92573.53
2023-05-20T04:15:57.902Z,92574.41
2023-05-20T04:18:24.453Z,92588.69
2023-05-20T04:20:54.810Z,92585.03
2023-05-20T04:23:21.316Z,92581.66
2023-05-20T04:25:48.754Z,92578.75
2023-05-20T04:28:16.359Z,92584.53
2023-05-20T04:30:45.066Z,92580.59
2023-05-20T04:33:11.978Z,92579.00
2023-05-20T04:35:41.479Z,92579.53
2023-05-20T04:38:08.582Z,92588.22
2023-05-20T04:40:35.124Z,92588.53
2023-05-20T04:43:01.890Z,92579.25
2023-05-20T04:45:28.395Z,92586.50
2023-05-20T04:47:54.933Z,92577.91
2023-05-20T04:50:21.920Z,92580.19
2023-05-20T04:52:49.444Z,92580.84
2023-05-20T04:55:16.059Z,92582.72
2023-05-20T04:57:42.866Z,92587.03
2023-05-20T05:00:13.203Z,92584.91
2023-05-20T05:02:39.970Z,92579.06
2023-05-20T05:05:07.221Z,92586.25
2023-05-20T05:07:33.844Z,92573.97
2023-05-20T05:10:00.547Z,92578.25
2023-05-20T05:12:27.026Z,92580.50
2023-05-20T05:14:53.557Z,92583.81
2023-05-20T05:17:20.060Z,92579.63
2023-05-20T05:19:46.562Z,92583.63
2023-05-20T05:22:13.079Z,92576.75
2023-05-20T05:24:39.641Z,92575.03
2023-05-20T05:27:06.175Z,92568.16
2023-05-20T05:29:32.716Z,92570.91
2023-05-20T05:31:59.264Z,92568.50
2023-05-20T05:34:25.835Z,92571.03
2023-05-20T05:36:52.478Z,92570.81
2023-05-20T05:39:19.002Z,92573.06
2023-05-20T05:41:45.687Z,92574.34
2023-05-20T05:44:12.233Z,92573.13
2023-05-20T05:46:38.815Z,92562.03
2023-05-20T05:49:05.415Z,92556.13
2023-05-20T05:51:31.959Z,92557.34
2023-05-20T05:53:58.503Z,92559.34
2023-05-20T05:56:25.065Z,92559.13
2023-05-20T05:58:51.832Z,92559.66
2023-05-20T06:01:18.365Z,92555.75
2023-05-20T06:03:45.144Z,92554.75
2023-05-20T06:06:11.727Z,92562.72
2023-05-20T06:08:38.380Z,92559.78
2023-05-20T06:11:04.892Z,92565.50
2023-05-20T06:13:31.388Z,92566.00
2023-05-20T06:15:57.914Z,92571.91
2023-05-20T06:18:24.452Z,92552.16
2023-05-20T06:21:00.035Z,92556.38
2023-05-20T06:23:26.690Z,92553.41
2023-05-20T06:25:53.242Z,92550.44
2023-05-20T06:28:20.602Z,92541.03
2023-05-20T06:30:47.141Z,92550.44
2023-05-20T06:33:14.081Z,92553.16
2023-05-20T06:35:40.698Z,92563.06
2023-05-20T06:38:07.283Z,92551.91
2023-05-20T06:40:33.797Z,92548.69
2023-05-20T06:43:00.303Z,92545.22
2023-05-20T06:45:26.825Z,92556.59
2023-05-20T06:47:54.362Z,92553.13
2023-05-20T06:50:20.978Z,92557.78
2023-05-20T06:52:47.478Z,92551.28
2023-05-20T06:55:14.069Z,92549.25
2023-05-20T06:57:40.669Z,92543.00
2023-05-20T07:00:10.224Z,92539.47
2023-05-20T07:02:36.803Z,92531.47
2023-05-20T07:05:03.416Z,92539.84
2023-05-20T07:07:29.914Z,92530.84
2023-05-20T07:09:57.044Z,92536.66
2023-05-20T07:12:23.590Z,92534.06
2023-05-20T07:14:50.142Z,92529.94
2023-05-20T07:17:16.680Z,92539.34
2023-05-20T07:19:43.267Z,92531.56
2023-05-20T07:22:09.768Z,92526.28
2023-05-20T07:24:36.646Z,92526.28
2023-05-20T07:27:03.154Z,92534.38
2023-05-20T07:29:29.655Z,92538.34
2023-05-20T07:31:56.220Z,92539.38
2023-05-20T07:34:22.822Z,92524.13
2023-05-20T07:36:49.772Z,92535.97
2023-05-20T07:39:16.328Z,92525.28
2023-05-20T07:41:42.897Z,92522.53
2023-05-20T07:44:11.272Z,92519.00
2023-05-20T07:46:38.281Z,92519.47
2023-05-20T07:49:05.340Z,92516.59
2023-05-20T07:51:31.980Z,92519.50
2023-05-20T07:53:58.474Z,92510.34
2023-05-20T07:56:25.140Z,92518.41
2023-05-20T07:58:58.582Z,92511.97
2023-05-20T08:01:27.966Z,92507.25
2023-05-20T08:03:54.592Z,92528.50
2023-05-20T08:06:21.273Z,92523.47
2023-05-20T08:08:47.794Z,92519.56
2023-05-20T08:11:14.325Z,92516.22
2023-05-20T08:13:41.063Z,92526.13
2023-05-20T08:16:07.674Z,92521.91
2023-05-20T08:18:37.931Z,92518.13
2023-05-20T08:21:05.476Z,92522.81
2023-05-20T08:23:34.449Z,92518.28
2023-05-20T08:26:03.620Z,92525.00
2023-05-20T08:28:30.786Z,92518.63
2023-05-20T08:30:58.160Z,92521.09
2023-05-20T08:33:24.697Z,92520.19
2023-05-20T08:35:51.204Z,92517.06
2023-05-20T08:38:17.722Z,92519.41
2023-05-20T08:40:44.247Z,92523.34
2023-05-20T08:43:10.791Z,92517.91
2023-05-20T08:45:38.243Z,92509.47
2023-05-20T08:48:05.389Z,92507.97
2023-05-20T08:50:31.945Z,92502.78
2023-05-20T08:52:58.949Z,92507.44
2023-05-20T08:55:34.750Z,92503.72
2023-05-20T08:58:02.824Z,92505.34
2023-05-20T09:00:29.401Z,92509.66
2023-05-20T09:02:57.024Z,92499.56
2023-05-20T09:05:24.586Z,92493.34
2023-05-20T09:07:51.264Z,92497.63
2023-05-20T09:10:17.820Z,92504.69
2023-05-20T09:12:44.382Z,92511.78
2023-05-20T09:15:11.426Z,92506.16
2023-05-20T09:17:38.657Z,92511.53
2023-05-20T09:20:09.851Z,92522.50
2023-05-20T09:22:36.389Z,92525.53
2023-05-20T09:25:02.944Z,92520.25
2023-05-20T09:27:29.498Z,92524.88
2023-05-20T09:29:56.033Z,92527.31
2023-05-20T09:32:28.204Z,92519.25
2023-05-20T09:34:54.753Z,92524.41
2023-05-20T09:37:21.635Z,92518.88
2023-05-20T09:40:00.518Z,92513.91
2023-05-20T09:42:29.638Z,92521.44
2023-05-20T09:44:59.029Z,92520.72
2023-05-20T09:47:25.578Z,92520.75
2023-05-20T09:49:52.679Z,92513.97
2023-05-20T09:52:21.312Z,92514.09
2023-05-20T09:54:48.452Z,92510.28
2023-05-20T09:57:14.980Z,92509.31
2023-05-20T09:59:42.165Z,92517.50
2023-05-20T10:02:08.758Z,92511.22
2023-05-20T10:04:35.941Z,92518.53
2023-05-20T10:07:11.978Z,92513.13
2023-05-20T10:09:59.951Z,92503.91
2023-05-20T10:12:38.639Z,92495.97
2023-05-20T10:15:22.530Z,92501.69
2023-05-20T10:18:02.654Z,92500.97
2023-05-20T10:20:29.178Z,92507.16
2023-05-20T10:22:57.390Z,92514.84
2023-05-20T10:25:27.923Z,92505.75
2023-05-20T10:28:08.296Z,92510.31
2023-05-20T10:30:35.797Z,92507.22
2023-05-20T10:33:06.766Z,92517.53
2023-05-20T10:35:33.563Z,92516.78
2023-05-20T10:38:11.216Z,92519.56
2023-05-20T10:40:37.962Z,92525.50
2023-05-20T10:43:11.593Z,92526.34
2023-05-20T10:45:51.288Z,92516.50
2023-05-20T10:48:24.748Z,92512.75
2023-05-20T10:50:53.011Z,92512.91
2023-05-20T10:53:32.876Z,92510.75
2023-05-20T10:56:00.361Z,92507.31
2023-05-20T10:58:27.042Z,92502.72
2023-05-20T11:00:54.598Z,92500.91
2023-05-20T11:03:24.347Z,92504.44
2023-05-20T11:05:51.135Z,92502.69
2023-05-20T11:08:28.613Z,92502.69
2023-05-20T11:10:59.107Z,92505.31
2023-05-20T11:13:26.263Z,92508.13
2023-05-20T11:15:53.008Z,92503.84
2023-05-20T11:18:19.548Z,92506.59
2023-05-20T11:20:49.234Z,92505.75
2023-05-20T11:23:16.054Z,92503.97
2023-05-20T11:25:42.610Z,92501.91
2023-05-20T11:28:19.698Z,92506.03
2023-05-20T11:30:46.390Z,92503.56
2023-05-20T11:33:13.346Z,92505.59
2023-05-20T11:35:48.165Z,92507.41
2023-05-20T11:38:14.828Z,92498.06
2023-05-20T11:40:50.993Z,92492.75
2023-05-20T11:43:18.192Z,92502.69
2023-05-20T11:45:47.330Z,92490.31
2023-05-20T11:48:17.486Z,92486.63
2023-05-20T11:50:45.124Z,92475.81
2023-05-20T11:53:16.264Z,92472.72
2023-05-20T11:55:56.214Z,92462.94
2023-05-20T11:58:23.731Z,92481.72
2023-05-20T12:00:55.143Z,92473.66
2023-05-20T12:03:26.110Z,92479.16
2023-05-20T12:05:52.859Z,92485.38
2023-05-20T12:08:19.355Z,92485.53
2023-05-20T12:10:45.923Z,92481.97
2023-05-20T12:13:13.519Z,92483.00
2023-05-20T12:15:40.275Z,92488.59
2023-05-20T12:18:06.929Z,92489.81
2023-05-20T12:20:34.596Z,92490.31
2023-05-20T12:23:01.387Z,92490.06
2023-05-20T12:25:27.963Z,92488.53
2023-05-20T12:27:55.216Z,92487.78
2023-05-20T12:30:22.606Z,92481.84
2023-05-20T12:32:50.890Z,92478.22
2023-05-20T12:35:17.746Z,92477.53
2023-05-20T12:37:44.282Z,92483.94
2023-05-20T12:40:12.019Z,92487.06
2023-05-20T12:42:39.222Z,92470.50
2023-05-20T12:45:06.300Z,92460.59
2023-05-20T12:47:32.925Z,92468.03
2023-05-20T12:49:59.879Z,92470.09
2023-05-20T12:52:26.590Z,92465.94
2023-05-20T12:54:56.494Z,92467.31
2023-05-20T12:57:25.986Z,92468.56
2023-05-20T12:59:52.677Z,92471.75
2023-05-20T13:02:19.248Z,92480.84
2023-05-20T13:04:45.795Z,92478.09
2023-05-20T13:07:12.320Z,92476.41
2023-05-20T13:09:38.862Z,92477.63
2023-05-20T13:12:05.623Z,92486.84
2023-05-20T13:14:32.189Z,92479.53
2023-05-20T13:16:58.758Z,92483.03
2023-05-20T13:19:26.108Z,92481.56
2023-05-20T13:21:54.596Z,92486.19
2023-05-20T13:24:21.538Z,92491.53
2023-05-20T13:26:48.104Z,92481.50
2023-05-20T13:29:14.609Z,92483.94
2023-05-20T13:31:41.129Z,92486.59
2023-05-20T13:34:07.740Z,92484.25
2023-05-20T13:36:34.348Z,92482.88
2023-05-20T13:39:00.944Z,92480.13
2023-05-20T13:41:27.637Z,92483.75
2023-05-20T13:43:54.162Z,92484.34
2023-05-20T13:46:20.744Z,92483.69
2023-05-20T13:48:47.252Z,92485.91
2023-05-20T13:51:13.989Z,92483.50
2023-05-20T13:53:40.643Z,92482.44
2023-05-20T13:56:09.278Z,92475.50
2023-05-20T13:58:38.741Z,92483.56
2023-05-20T14:01:05.498Z,92485.38
2023-05-20T14:03:33.246Z,92472.91
2023-05-20T14:06:00.628Z,92474.22
2023-05-20T14:08:27.434Z,92475.50
2023-05-20T14:10:55.454Z,92478.53
2023-05-20T14:13:22.561Z,92468.38
2023-05-20T14:15:50.713Z,92473.88
2023-05-20T14:18:17.950Z,92473.00
2023-05-20T14:20:45.481Z,92480.56
2023-05-20T14:23:12.152Z,92473.41
2023-05-20T14:25:38.896Z,92468.25
2023-05-20T14:28:05.705Z,92465.25
2023-05-20T14:30:32.368Z,92463.38
2023-05-20T14:32:59.027Z,92466.31
2023-05-20T14:35:25.548Z,92466.44
2023-05-20T14:37:52.492Z,92468.34
2023-05-20T14:40:19.226Z,92458.63
2023-05-20T14:42:45.942Z,92469.19
2023-05-20T14:45:12.430Z,92463.19
2023-05-20T14:47:40.213Z,92457.69
2023-05-20T14:50:07.419Z,92465.25
2023-05-20T14:52:34.008Z,92454.19
2023-05-20T14:55:00.651Z,92464.88
2023-05-20T14:57:27.378Z,92464.97
2023-05-20T14:59:53.891Z,92470.25
2023-05-20T15:02:20.524Z,92468.53
2023-05-20T15:04:47.901Z,92466.09
2023-05-20T15:07:15.123Z,92473.38
2023-05-20T15:09:42.023Z,92478.31
2023-05-20T15:12:09.554Z,92479.47
2023-05-20T15:14:36.052Z,92489.50
2023-05-20T15:17:03.564Z,92483.59
2023-05-20T15:19:31.777Z,92478.91
2023-05-20T15:21:58.791Z,92468.50
2023-05-20T15:24:25.393Z,92467.84
2023-05-20T15:26:52.772Z,92472.09
2023-05-20T15:29:19.508Z,92479.16
2023-05-20T15:31:46.521Z,92487.41
2023-05-20T15:34:13.109Z,92472.25
2023-05-20T15:36:39.677Z,92474.56
2023-05-20T15:39:06.304Z,92468.66
2023-05-20T15:41:32.891Z,92477.59
2023-05-20T15:43:59.395Z,92476.41
2023-05-20T15:46:26.203Z,92469.03
2023-05-20T15:48:56.051Z,92476.50
2023-05-20T15:51:23.178Z,92473.06
2023-05-20T15:53:49.762Z,92471.44
2023-05-20T15:56:16.650Z,92471.00
2023-05-20T15:58:44.371Z,92472.06
2023-05-20T16:01:11.127Z,92465.03
2023-05-20T16:03:37.837Z,92460.50
2023-05-20T16:06:04.644Z,92467.44
2023-05-20T16:08:31.370Z,92466.13
2023-05-20T16:10:57.931Z,92473.06
2023-05-20T16:13:24.485Z,92472.44
2023-05-20T16:15:51.443Z,92468.56
2023-05-20T16:18:18.727Z,92469.38
2023-05-20T16:20:45.464Z,92464.41
2023-05-20T16:23:12.219Z,92468.63
2023-05-20T16:25:38.734Z,92475.88
2023-05-20T16:28:05.614Z,92468.72
2023-05-20T16:30:32.185Z,92472.97
2023-05-20T16:32:58.809Z,92468.53
2023-05-20T16:35:25.350Z,92465.38
2023-05-20T16:37:51.877Z,92464.91
2023-05-20T16:40:18.381Z,92468.91
2023-05-20T16:42:45.402Z,92458.25
2023-05-20T16:45:12.053Z,92464.69
2023-05-20T16:47:38.616Z,92462.69
2023-05-20T16:50:05.509Z,92463.72
2023-05-20T16:52:33.649Z,92463.22
2023-05-20T16:55:03.571Z,92467.19
2023-05-20T16:57:30.622Z,92465.94
2023-05-20T16:59:58.234Z,92457.06
2023-05-20T17:02:24.803Z,92453.59
2023-05-20T17:04:51.760Z,92445.22
2023-05-20T17:07:18.337Z,92459.88
2023-05-20T17:09:44.838Z,92460.63
2023-05-20T17:12:11.369Z,92460.19
2023-05-20T17:14:37.933Z,92461.47
2023-05-20T17:17:04.677Z,92455.44
2023-05-20T17:19:31.547Z,92451.47
2023-05-20T17:21:58.174Z,92455.44
2023-05-20T17:24:24.696Z,92456.47
2023-05-20T17:26:51.210Z,92453.28
2023-05-20T17:29:17.779Z,92456.53
2023-05-20T17:31:44.535Z,92461.03
2023-05-20T17:34:11.379Z,92455.34
2023-05-20T17:36:37.962Z,92456.31
2023-05-20T17:39:04.640Z,92453.13
2023-05-20T17:41:31.225Z,92460.41
2023-05-20T17:43:57.780Z,92465.16
2023-05-20T17:46:24.308Z,92462.97
2023-05-20T17:48:50.877Z,92457.03
2023-05-20T17:51:17.464Z,92457.03
2023-05-20T17:53:43.980Z,92452.63
2023-05-20T17:56:10.599Z,92442.69
2023-05-20T17:58:37.311Z,92453.44
2023-05-20T18:01:03.855Z,92452.47
2023-05-20T18:03:30.578Z,92454.44
2023-05-20T18:05:57.147Z,92449.28
2023-05-20T18:08:25.283Z,92448.84
2023-05-20T18:10:52.284Z,92452.34
2023-05-20T18:13:18.840Z,92455.38
2023-05-20T18:15:45.564Z,92447.53
2023-05-20T18:18:12.326Z,92452.78
2023-05-20T18:20:38.840Z,92453.31
2023-05-20T18:23:05.356Z,92454.88
2023-05-20T18:25:31.938Z,92462.88
2023-05-20T18:27:58.430Z,92458.44
2023-05-20T18:30:25.060Z,92459.25
2023-05-20T18:32:51.749Z,92454.59
2023-05-20T18:35:18.286Z,92458.34
2023-05-20T18:37:44.857Z,92458.91
2023-05-20T18:40:11.884Z,92461.41
2023-05-20T18:46:19.078Z,92457.78
2023-05-20T18:48:45.675Z,92451.34
2023-05-20T18:51:12.175Z,92458.31
2023-05-20T18:53:38.690Z,92453.13
2023-05-20T18:56:05.712Z,92457.88
2023-05-20T18:58:32.226Z,92455.91
2023-05-20T19:00:58.833Z,92455.66
2023-05-20T19:03:26.328Z,92462.88
2023-05-20T19:05:52.916Z,92461.88
2023-05-20T19:08:19.487Z,92449.25
2023-05-20T19:10:46.014Z,92447.53
2023-05-20T19:13:12.811Z,92450.25
2023-05-20T19:15:39.343Z,92456.91
2023-05-20T19:18:06.105Z,92457.66
2023-05-20T19:20:34.324Z,92455.44
2023-05-20T19:23:00.979Z,92457.16
2023-05-20T19:25:27.897Z,92457.88
2023-05-20T19:27:54.751Z,92459.09
2023-05-20T19:30:21.304Z,92463.78
2023-05-20T19:32:47.862Z,92459.34
2023-05-20T19:35:14.573Z,92467.00
2023-05-20T19:37:41.097Z,92461.34
2023-05-20T19:40:08.264Z,92469.00
2023-05-20T19:42:35.039Z,92474.44
2023-05-20T19:45:01.558Z,92477.66
2023-05-20T19:47:28.134Z,92480.38
2023-05-20T19:49:54.672Z,92476.41
2023-05-20T19:52:21.225Z,92471.47
2023-05-20T19:54:47.768Z,92472.69
2023-05-20T19:57:14.283Z,92465.00
2023-05-20T19:59:40.893Z,92472.44
2023-05-20T20:02:07.431Z,92471.16
2023-05-20T20:04:34.015Z,92468.69
2023-05-20T20:07:00.875Z,92465.00
2023-05-20T20:09:27.549Z,92463.25
2023-05-20T20:11:54.297Z,92460.75
2023-05-20T20:14:21.214Z,92466.69
2023-05-20T20:16:49.152Z,92467.69
2023-05-20T20:19:22.934Z,92472.13
2023-05-20T20:21:52.181Z,92478.53
2023-05-20T20:24:19.272Z,92475.78
2023-05-20T20:26:47.419Z,92470.13
2023-05-20T20:29:14.532Z,92468.13
2023-05-20T20:31:41.107Z,92475.56
2023-05-20T20:34:07.671Z,92469.38
2023-05-20T20:36:34.763Z,92472.81
2023-05-20T20:39:05.025Z,92469.09
2023-05-20T20:41:32.205Z,92469.06
2023-05-20T20:43:59.320Z,92476.22
2023-05-20T20:46:27.562Z,92478.44
2023-05-20T20:48:54.367Z,92472.50
2023-05-20T20:51:21.152Z,92469.78
2023-05-20T20:53:48.670Z,92467.53
2023-05-20T20:56:15.222Z,92460.59
2023-05-20T20:58:41.778Z,92467.97
2023-05-20T21:01:09.922Z,92468.47
2023-05-20T21:03:40.174Z,92467.47
2023-05-20T21:06:07.673Z,92463.53
2023-05-20T21:08:34.226Z,92464.75
2023-05-20T21:11:00.753Z,92458.09
2023-05-20T21:13:27.689Z,92460.06
2023-05-20T21:15:54.328Z,92459.31
2023-05-20T21:18:22.502Z,92453.16
2023-05-20T21:20:49.659Z,92452.41
2023-05-20T21:23:16.633Z,92445.50
2023-05-20T21:25:43.135Z,92438.56
2023-05-20T21:28:09.719Z,92448.22
2023-05-20T21:30:36.284Z,92440.06
2023-05-20T21:33:03.768Z,92439.28
2023-05-20T21:35:30.333Z,92435.84
2023-05-20T21:37:56.840Z,92429.66
2023-05-20T21:40:23.420Z,92436.81
2023-05-20T21:42:49.953Z,92426.94
2023-05-20T21:45:17.510Z,92424.47
2023-05-20T21:47:46.108Z,92422.97
2023-05-20T21:50:12.873Z,92423.44
2023-05-20T21:52:39.923Z,92428.63
2023-05-20T21:55:09.044Z,92423.19
2023-05-20T21:57:35.824Z,92427.88
2023-05-20T22:00:03.030Z,92429.13
2023-05-20T22:02:29.629Z,92424.91
2023-05-20T22:04:57.657Z,92421.94
2023-05-20T22:07:24.210Z,92422.13
2023-05-20T22:09:50.720Z,92419.16
2023-05-20T22:12:17.219Z,92408.31
2023-05-20T22:14:43.750Z,92413.25
2023-05-20T22:17:10.552Z,92407.81
2023-05-20T22:19:37.076Z,92403.63
2023-05-20T22:22:03.746Z,92401.66
2023-05-20T22:24:30.554Z,92400.16
2023-05-20T22:26:57.049Z,92398.69
2023-05-20T22:29:23.613Z,92401.13
2023-05-20T22:31:50.196Z,92403.09
2023-05-20T22:34:16.778Z,92387.09
2023-05-20T22:36:43.311Z,92391.28
2023-05-20T22:39:10.033Z,92387.81
2023-05-20T22:41:36.536Z,92395.97
2023-05-20T22:44:03.079Z,92396.44
2023-05-20T22:46:29.676Z,92390.75
2023-05-20T22:48:58.291Z,92397.41
2023-05-20T22:51:24.868Z,92389.25
2023-05-20T22:53:51.455Z,92391.25
2023-05-20T22:56:18.102Z,92387.03
2023-05-20T22:58:45.567Z,92375.44
2023-05-20T23:01:12.322Z,92382.09
2023-05-20T23:03:39.839Z,92381.84
2023-05-20T23:06:06.579Z,92381.59
2023-05-20T23:08:33.091Z,92373.94
2023-05-20T23:10:59.591Z,92365.03
2023-05-20T23:13:26.493Z,92367.00
2023-05-20T23:15:53.238Z,92366.75
2023-05-20T23:18:19.746Z,92368.00
2023-05-20T23:20:47.624Z,92368.72
2023-05-20T23:23:14.263Z,92373.41
2023-05-20T23:25:42.382Z,92378.34
2023-05-20T23:28:10.179Z,92368.47
2023-05-20T23:30:36.671Z,92365.78
2023-05-20T23:33:04.015Z,92368.00
2023-05-20T23:35:30.734Z,92363.31
2023-05-20T23:37:57.402Z,92368.72
2023-05-20T23:40:23.925Z,92363.31
2023-05-20T23:42:50.475Z,92368.72
2023-05-20T23:45:17.070Z,92366.75
2023-05-20T23:47:43.634Z,92357.88
2023-05-20T23:50:10.825Z,92367.50
2023-05-20T23:52:37.342Z,92373.19
2023-05-20T23:55:04.147Z,92370.00
2023-05-20T23:57:30.684Z,92369.53
2023-05-20T23:59:57.169Z,92370.75
